sensor_id;sensor_type;location;lat;lon;timestamp;P1;durP1;ratioP1;P2;durP2;ratioP2
38358;SDS011;42072;48.044;14.416;2023-01-04T00:01:20;42.55;;;24.45;;
38358;SDS011;42072;48.044;14.416;2023-01-04T00:03:48;41.00;;;25.00;;
38358;SDS011;42072;48.044;14.416;2023-01-04T00:06:17;44.28;;;24.73;;
38358;SDS011;42072;48.044;14.416;2023-01-04T00:08:45;48.83;;;26.15;;
38358;SDS011;42072;48.044;14.416;2023-01-04T00:11:16;43.95;;;24.80;;
38358;SDS011;42072;48.044;14.416;2023-01-04T00:13:46;43.05;;;25.33;;
38358;SDS011;42072;48.044;14.416;2023-01-04T00:16:16;44.80;;;25.23;;
38358;SDS011;42072;48.044;14.416;2023-01-04T00:18:48;42.55;;;25.10;;
38358;SDS011;42072;48.044;14.416;2023-01-04T00:21:20;57.00;;;27.63;;
38358;SDS011;42072;48.044;14.416;2023-01-04T00:23:51;46.50;;;26.13;;
38358;SDS011;42072;48.044;14.416;2023-01-04T00:26:23;43.67;;;24.50;;
38358;SDS011;42072;48.044;14.416;2023-01-04T00:28:55;48.80;;;26.75;;
38358;SDS011;42072;48.044;14.416;2023-01-04T00:31:24;49.80;;;26.58;;
38358;SDS011;42072;48.044;14.416;2023-01-04T00:33:53;47.72;;;26.75;;
38358;SDS011;42072;48.044;14.416;2023-01-04T00:36:24;49.10;;;27.05;;
38358;SDS011;42072;48.044;14.416;2023-01-04T00:38:53;44.40;;;24.33;;
38358;SDS011;42072;48.044;14.416;2023-01-04T00:41:50;52.72;;;27.13;;
38358;SDS011;42072;48.044;14.416;2023-01-04T00:44:28;48.00;;;26.10;;
38358;SDS011;42072;48.044;14.416;2023-01-04T00:46:57;47.00;;;26.38;;
38358;SDS011;42072;48.044;14.416;2023-01-04T00:49:25;44.10;;;25.77;;
38358;SDS011;42072;48.044;14.416;2023-01-04T00:51:53;43.67;;;24.33;;
38358;SDS011;42072;48.044;14.416;2023-01-04T00:54:21;41.03;;;25.00;;
38358;SDS011;42072;48.044;14.416;2023-01-04T00:56:49;46.83;;;25.52;;
38358;SDS011;42072;48.044;14.416;2023-01-04T00:59:18;47.00;;;26.77;;
38358;SDS011;42072;48.044;14.416;2023-01-04T01:01:47;47.60;;;25.95;;
38358;SDS011;42072;48.044;14.416;2023-01-04T01:04:16;43.67;;;25.10;;
38358;SDS011;42072;48.044;14.416;2023-01-04T01:06:45;45.65;;;25.08;;
38358;SDS011;42072;48.044;14.416;2023-01-04T01:09:13;41.75;;;24.77;;
38358;SDS011;42072;48.044;14.416;2023-01-04T01:11:41;58.20;;;27.90;;
38358;SDS011;42072;48.044;14.416;2023-01-04T01:14:12;56.40;;;29.65;;
38358;SDS011;42072;48.044;14.416;2023-01-04T01:16:43;45.30;;;26.00;;
38358;SDS011;42072;48.044;14.416;2023-01-04T01:19:22;41.28;;;23.25;;
38358;SDS011;42072;48.044;14.416;2023-01-04T01:21:51;42.03;;;24.20;;
38358;SDS011;42072;48.044;14.416;2023-01-04T01:24:18;45.83;;;24.50;;
38358;SDS011;42072;48.044;14.416;2023-01-04T01:26:47;49.70;;;26.45;;
38358;SDS011;42072;48.044;14.416;2023-01-04T01:29:14;53.28;;;27.98;;
38358;SDS011;42072;48.044;14.416;2023-01-04T01:31:41;71.20;;;34.03;;
38358;SDS011;42072;48.044;14.416;2023-01-04T01:34:09;72.50;;;35.67;;
38358;SDS011;42072;48.044;14.416;2023-01-04T01:36:36;74.57;;;36.30;;
38358;SDS011;42072;48.044;14.416;2023-01-04T01:39:04;76.78;;;36.60;;
38358;SDS011;42072;48.044;14.416;2023-01-04T01:41:32;67.63;;;35.13;;
38358;SDS011;42072;48.044;14.416;2023-01-04T01:44:05;73.68;;;36.30;;
38358;SDS011;42072;48.044;14.416;2023-01-04T01:46:53;79.05;;;37.50;;
38358;SDS011;42072;48.044;14.416;2023-01-04T01:51:59;78.70;;;38.25;;
38358;SDS011;42072;48.044;14.416;2023-01-04T01:54:36;77.85;;;38.70;;
38358;SDS011;42072;48.044;14.416;2023-01-04T01:57:09;79.43;;;37.75;;
38358;SDS011;42072;48.044;14.416;2023-01-04T01:59:39;71.55;;;35.95;;
38358;SDS011;42072;48.044;14.416;2023-01-04T02:02:09;81.60;;;37.55;;
38358;SDS011;42072;48.044;14.416;2023-01-04T02:04:38;84.78;;;39.47;;
38358;SDS011;42072;48.044;14.416;2023-01-04T02:07:10;75.82;;;34.40;;
38358;SDS011;42072;48.044;14.416;2023-01-04T02:09:41;74.25;;;36.45;;
38358;SDS011;42072;48.044;14.416;2023-01-04T02:12:10;75.20;;;35.67;;
38358;SDS011;42072;48.044;14.416;2023-01-04T02:14:38;72.78;;;35.38;;
38358;SDS011;42072;48.044;14.416;2023-01-04T02:17:15;74.53;;;35.22;;
38358;SDS011;42072;48.044;14.416;2023-01-04T02:22:53;68.25;;;34.28;;
38358;SDS011;42072;48.044;14.416;2023-01-04T02:28:35;59.75;;;32.45;;
38358;SDS011;42072;48.044;14.416;2023-01-04T02:34:26;60.97;;;32.95;;
38358;SDS011;42072;48.044;14.416;2023-01-04T02:37:16;59.97;;;33.63;;
38358;SDS011;42072;48.044;14.416;2023-01-04T02:42:24;60.20;;;33.85;;
38358;SDS011;42072;48.044;14.416;2023-01-04T02:45:16;63.67;;;34.00;;
38358;SDS011;42072;48.044;14.416;2023-01-04T02:47:47;67.55;;;33.05;;
38358;SDS011;42072;48.044;14.416;2023-01-04T02:50:49;61.83;;;32.28;;
38358;SDS011;42072;48.044;14.416;2023-01-04T02:53:40;68.55;;;32.35;;
38358;SDS011;42072;48.044;14.416;2023-01-04T02:56:25;60.00;;;33.10;;
38358;SDS011;42072;48.044;14.416;2023-01-04T02:59:18;60.55;;;33.13;;
38358;SDS011;42072;48.044;14.416;2023-01-04T03:07:53;64.68;;;33.72;;
38358;SDS011;42072;48.044;14.416;2023-01-04T03:10:38;64.70;;;35.08;;
38358;SDS011;42072;48.044;14.416;2023-01-04T03:16:09;70.55;;;35.78;;
38358;SDS011;42072;48.044;14.416;2023-01-04T03:18:45;70.72;;;33.47;;
38358;SDS011;42072;48.044;14.416;2023-01-04T03:21:17;78.75;;;34.28;;
38358;SDS011;42072;48.044;14.416;2023-01-04T03:23:46;76.65;;;35.65;;
38358;SDS011;42072;48.044;14.416;2023-01-04T03:26:38;77.20;;;33.85;;
38358;SDS011;42072;48.044;14.416;2023-01-04T03:29:42;85.38;;;34.42;;
38358;SDS011;42072;48.044;14.416;2023-01-04T03:32:47;90.93;;;36.03;;
38358;SDS011;42072;48.044;14.416;2023-01-04T03:39:33;121.30;;;36.15;;
38358;SDS011;42072;48.044;14.416;2023-01-04T03:42:14;120.95;;;34.58;;
38358;SDS011;42072;48.044;14.416;2023-01-04T03:45:25;100.70;;;32.53;;
38358;SDS011;42072;48.044;14.416;2023-01-04T03:53:43;113.15;;;34.90;;
38358;SDS011;42072;48.044;14.416;2023-01-04T03:56:15;89.55;;;32.75;;
38358;SDS011;42072;48.044;14.416;2023-01-04T03:58:48;151.93;;;37.60;;
38358;SDS011;42072;48.044;14.416;2023-01-04T04:01:17;124.47;;;34.47;;
38358;SDS011;42072;48.044;14.416;2023-01-04T04:03:46;137.07;;;37.80;;
38358;SDS011;42072;48.044;14.416;2023-01-04T04:06:31;217.07;;;39.20;;
38358;SDS011;42072;48.044;14.416;2023-01-04T04:09:17;148.35;;;37.08;;
38358;SDS011;42072;48.044;14.416;2023-01-04T04:11:44;213.52;;;40.55;;
38358;SDS011;42072;48.044;14.416;2023-01-04T04:14:11;286.90;;;42.30;;
38358;SDS011;42072;48.044;14.416;2023-01-04T04:16:38;124.32;;;36.30;;
38358;SDS011;42072;48.044;14.416;2023-01-04T04:19:06;331.42;;;43.55;;
38358;SDS011;42072;48.044;14.416;2023-01-04T04:21:34;154.57;;;36.85;;
38358;SDS011;42072;48.044;14.416;2023-01-04T04:24:02;213.00;;;38.95;;
38358;SDS011;42072;48.044;14.416;2023-01-04T04:26:30;244.93;;;41.65;;
38358;SDS011;42072;48.044;14.416;2023-01-04T04:28:58;117.40;;;36.22;;
38358;SDS011;42072;48.044;14.416;2023-01-04T04:31:25;227.55;;;41.70;;
38358;SDS011;42072;48.044;14.416;2023-01-04T04:33:53;112.40;;;36.67;;
38358;SDS011;42072;48.044;14.416;2023-01-04T04:36:20;111.88;;;35.95;;
38358;SDS011;42072;48.044;14.416;2023-01-04T04:38:47;176.50;;;39.05;;
38358;SDS011;42072;48.044;14.416;2023-01-04T04:41:14;155.77;;;37.10;;
38358;SDS011;42072;48.044;14.416;2023-01-04T04:44:00;318.73;;;41.95;;
38358;SDS011;42072;48.044;14.416;2023-01-04T04:46:27;217.25;;;40.40;;
38358;SDS011;42072;48.044;14.416;2023-01-04T04:48:54;220.77;;;41.90;;
38358;SDS011;42072;48.044;14.416;2023-01-04T04:51:23;297.60;;;40.83;;
38358;SDS011;42072;48.044;14.416;2023-01-04T04:53:50;502.70;;;47.72;;
38358;SDS011;42072;48.044;14.416;2023-01-04T04:56:17;197.07;;;38.40;;
38358;SDS011;42072;48.044;14.416;2023-01-04T04:58:45;203.73;;;37.17;;
38358;SDS011;42072;48.044;14.416;2023-01-04T05:01:12;111.85;;;36.92;;
38358;SDS011;42072;48.044;14.416;2023-01-04T05:03:40;154.70;;;38.00;;
38358;SDS011;42072;48.044;14.416;2023-01-04T05:06:07;97.38;;;35.03;;
38358;SDS011;42072;48.044;14.416;2023-01-04T05:08:34;271.80;;;39.67;;
38358;SDS011;42072;48.044;14.416;2023-01-04T05:11:08;173.43;;;37.55;;
38358;SDS011;42072;48.044;14.416;2023-01-04T05:13:37;117.43;;;36.58;;
38358;SDS011;42072;48.044;14.416;2023-01-04T05:16:05;138.50;;;40.03;;
38358;SDS011;42072;48.044;14.416;2023-01-04T05:18:33;152.13;;;42.20;;
38358;SDS011;42072;48.044;14.416;2023-01-04T05:21:01;167.18;;;40.70;;
38358;SDS011;42072;48.044;14.416;2023-01-04T05:23:29;124.53;;;39.03;;
38358;SDS011;42072;48.044;14.416;2023-01-04T05:25:57;136.48;;;38.25;;
38358;SDS011;42072;48.044;14.416;2023-01-04T05:28:26;105.13;;;39.53;;
38358;SDS011;42072;48.044;14.416;2023-01-04T05:30:54;148.68;;;42.53;;
38358;SDS011;42072;48.044;14.416;2023-01-04T05:33:24;160.65;;;40.70;;
38358;SDS011;42072;48.044;14.416;2023-01-04T05:35:54;168.07;;;43.75;;
38358;SDS011;42072;48.044;14.416;2023-01-04T05:38:22;272.73;;;48.60;;
38358;SDS011;42072;48.044;14.416;2023-01-04T05:40:50;193.68;;;44.28;;
38358;SDS011;42072;48.044;14.416;2023-01-04T05:43:18;131.50;;;41.40;;
38358;SDS011;42072;48.044;14.416;2023-01-04T05:45:48;150.45;;;43.28;;
38358;SDS011;42072;48.044;14.416;2023-01-04T05:48:18;136.48;;;43.03;;
38358;SDS011;42072;48.044;14.416;2023-01-04T05:50:46;145.80;;;45.58;;
38358;SDS011;42072;48.044;14.416;2023-01-04T05:53:14;136.77;;;40.83;;
38358;SDS011;42072;48.044;14.416;2023-01-04T05:55:46;138.63;;;41.92;;
38358;SDS011;42072;48.044;14.416;2023-01-04T05:58:14;146.55;;;42.15;;
38358;SDS011;42072;48.044;14.416;2023-01-04T06:00:41;120.05;;;37.17;;
38358;SDS011;42072;48.044;14.416;2023-01-04T06:03:08;173.98;;;38.55;;
38358;SDS011;42072;48.044;14.416;2023-01-04T06:05:36;128.05;;;37.17;;
38358;SDS011;42072;48.044;14.416;2023-01-04T06:08:03;91.20;;;33.03;;
38358;SDS011;42072;48.044;14.416;2023-01-04T06:10:30;81.78;;;31.75;;
38358;SDS011;42072;48.044;14.416;2023-01-04T06:12:58;97.28;;;32.42;;
38358;SDS011;42072;48.044;14.416;2023-01-04T06:15:25;91.38;;;34.58;;
38358;SDS011;42072;48.044;14.416;2023-01-04T06:17:52;83.93;;;32.22;;
38358;SDS011;42072;48.044;14.416;2023-01-04T06:20:19;78.90;;;31.52;;
38358;SDS011;42072;48.044;14.416;2023-01-04T06:22:46;87.72;;;33.03;;
38358;SDS011;42072;48.044;14.416;2023-01-04T06:25:14;93.28;;;33.58;;
38358;SDS011;42072;48.044;14.416;2023-01-04T06:27:41;88.22;;;32.20;;
38358;SDS011;42072;48.044;14.416;2023-01-04T06:30:08;107.38;;;41.03;;
38358;SDS011;42072;48.044;14.416;2023-01-04T06:32:36;77.47;;;30.73;;
38358;SDS011;42072;48.044;14.416;2023-01-04T06:35:03;69.18;;;28.17;;
38358;SDS011;42072;48.044;14.416;2023-01-04T06:37:31;64.85;;;24.92;;
38358;SDS011;42072;48.044;14.416;2023-01-04T06:39:58;67.72;;;27.13;;
38358;SDS011;42072;48.044;14.416;2023-01-04T06:42:25;69.63;;;25.70;;
38358;SDS011;42072;48.044;14.416;2023-01-04T06:45:11;71.20;;;26.45;;
38358;SDS011;42072;48.044;14.416;2023-01-04T06:47:39;65.20;;;26.23;;
38358;SDS011;42072;48.044;14.416;2023-01-04T06:50:07;67.45;;;25.83;;
38358;SDS011;42072;48.044;14.416;2023-01-04T06:52:35;62.67;;;26.10;;
38358;SDS011;42072;48.044;14.416;2023-01-04T06:55:03;61.92;;;23.63;;
38358;SDS011;42072;48.044;14.416;2023-01-04T06:57:31;64.30;;;24.45;;
38358;SDS011;42072;48.044;14.416;2023-01-04T06:59:58;63.58;;;25.73;;
38358;SDS011;42072;48.044;14.416;2023-01-04T07:02:25;68.85;;;25.27;;
38358;SDS011;42072;48.044;14.416;2023-01-04T07:04:53;61.03;;;23.83;;
38358;SDS011;42072;48.044;14.416;2023-01-04T07:07:20;55.33;;;22.05;;
38358;SDS011;42072;48.044;14.416;2023-01-04T07:09:47;50.50;;;21.90;;
38358;SDS011;42072;48.044;14.416;2023-01-04T07:12:14;47.28;;;20.92;;
38358;SDS011;42072;48.044;14.416;2023-01-04T07:14:42;44.05;;;20.10;;
38358;SDS011;42072;48.044;14.416;2023-01-04T07:17:09;45.80;;;18.95;;
38358;SDS011;42072;48.044;14.416;2023-01-04T07:19:36;47.80;;;19.55;;
38358;SDS011;42072;48.044;14.416;2023-01-04T07:22:03;44.22;;;20.77;;
38358;SDS011;42072;48.044;14.416;2023-01-04T07:24:30;45.13;;;19.65;;
38358;SDS011;42072;48.044;14.416;2023-01-04T07:26:58;52.97;;;20.23;;
38358;SDS011;42072;48.044;14.416;2023-01-04T07:29:25;53.80;;;20.75;;
38358;SDS011;42072;48.044;14.416;2023-01-04T07:31:53;51.53;;;20.52;;
38358;SDS011;42072;48.044;14.416;2023-01-04T07:34:21;55.30;;;21.05;;
38358;SDS011;42072;48.044;14.416;2023-01-04T07:36:50;64.90;;;22.27;;
38358;SDS011;42072;48.044;14.416;2023-01-04T07:39:18;57.00;;;22.05;;
38358;SDS011;42072;48.044;14.416;2023-01-04T07:41:46;57.53;;;22.65;;
38358;SDS011;42072;48.044;14.416;2023-01-04T07:44:15;54.72;;;21.42;;
38358;SDS011;42072;48.044;14.416;2023-01-04T07:46:47;49.55;;;21.20;;
38358;SDS011;42072;48.044;14.416;2023-01-04T07:49:15;46.97;;;18.98;;
38358;SDS011;42072;48.044;14.416;2023-01-04T07:51:46;42.00;;;18.35;;
38358;SDS011;42072;48.044;14.416;2023-01-04T07:54:14;36.92;;;17.40;;
38358;SDS011;42072;48.044;14.416;2023-01-04T07:56:43;41.25;;;17.67;;
38358;SDS011;42072;48.044;14.416;2023-01-04T07:59:12;42.78;;;18.33;;
38358;SDS011;42072;48.044;14.416;2023-01-04T08:01:40;32.58;;;16.95;;
38358;SDS011;42072;48.044;14.416;2023-01-04T08:04:08;36.40;;;16.00;;
38358;SDS011;42072;48.044;14.416;2023-01-04T08:06:37;34.35;;;15.38;;
38358;SDS011;42072;48.044;14.416;2023-01-04T08:09:05;37.92;;;16.05;;
38358;SDS011;42072;48.044;14.416;2023-01-04T08:11:33;29.35;;;15.40;;
38358;SDS011;42072;48.044;14.416;2023-01-04T08:14:01;31.80;;;15.10;;
38358;SDS011;42072;48.044;14.416;2023-01-04T08:16:29;36.92;;;15.25;;
38358;SDS011;42072;48.044;14.416;2023-01-04T08:18:59;34.85;;;16.70;;
38358;SDS011;42072;48.044;14.416;2023-01-04T08:21:32;33.33;;;16.17;;
38358;SDS011;42072;48.044;14.416;2023-01-04T08:24:01;33.80;;;15.38;;
38358;SDS011;42072;48.044;14.416;2023-01-04T08:26:29;31.70;;;15.70;;
38358;SDS011;42072;48.044;14.416;2023-01-04T08:28:57;32.72;;;14.93;;
38358;SDS011;42072;48.044;14.416;2023-01-04T08:31:26;32.90;;;16.35;;
38358;SDS011;42072;48.044;14.416;2023-01-04T08:33:57;32.17;;;15.73;;
38358;SDS011;42072;48.044;14.416;2023-01-04T08:36:27;31.42;;;15.48;;
38358;SDS011;42072;48.044;14.416;2023-01-04T08:39:00;32.88;;;16.35;;
38358;SDS011;42072;48.044;14.416;2023-01-04T08:41:33;35.65;;;17.67;;
38358;SDS011;42072;48.044;14.416;2023-01-04T08:44:33;36.40;;;17.45;;
38358;SDS011;42072;48.044;14.416;2023-01-04T08:47:00;33.17;;;16.25;;
38358;SDS011;42072;48.044;14.416;2023-01-04T08:49:28;30.80;;;15.52;;
38358;SDS011;42072;48.044;14.416;2023-01-04T08:51:55;29.52;;;14.90;;
38358;SDS011;42072;48.044;14.416;2023-01-04T08:54:22;29.40;;;14.52;;
38358;SDS011;42072;48.044;14.416;2023-01-04T08:56:49;30.23;;;15.15;;
38358;SDS011;42072;48.044;14.416;2023-01-04T08:59:17;34.65;;;16.92;;
38358;SDS011;42072;48.044;14.416;2023-01-04T09:01:44;36.30;;;17.15;;
38358;SDS011;42072;48.044;14.416;2023-01-04T09:04:12;30.17;;;15.68;;
38358;SDS011;42072;48.044;14.416;2023-01-04T09:06:39;26.10;;;14.23;;
38358;SDS011;42072;48.044;14.416;2023-01-04T09:09:07;29.75;;;13.77;;
38358;SDS011;42072;48.044;14.416;2023-01-04T09:11:36;21.98;;;11.55;;
38358;SDS011;42072;48.044;14.416;2023-01-04T09:14:04;31.67;;;15.40;;
38358;SDS011;42072;48.044;14.416;2023-01-04T09:16:38;31.83;;;16.60;;
38358;SDS011;42072;48.044;14.416;2023-01-04T09:19:06;25.02;;;13.98;;
38358;SDS011;42072;48.044;14.416;2023-01-04T09:21:33;20.90;;;11.25;;
38358;SDS011;42072;48.044;14.416;2023-01-04T09:24:01;23.13;;;11.63;;
38358;SDS011;42072;48.044;14.416;2023-01-04T09:26:28;21.63;;;10.95;;
38358;SDS011;42072;48.044;14.416;2023-01-04T09:28:55;20.65;;;10.25;;
38358;SDS011;42072;48.044;14.416;2023-01-04T09:31:24;17.00;;;9.75;;
38358;SDS011;42072;48.044;14.416;2023-01-04T09:33:53;21.88;;;10.70;;
38358;SDS011;42072;48.044;14.416;2023-01-04T09:36:41;20.00;;;11.18;;
38358;SDS011;42072;48.044;14.416;2023-01-04T09:39:09;17.02;;;9.18;;
38358;SDS011;42072;48.044;14.416;2023-01-04T09:41:57;17.55;;;9.20;;
38358;SDS011;42072;48.044;14.416;2023-01-04T09:47:38;18.38;;;10.68;;
38358;SDS011;42072;48.044;14.416;2023-01-04T09:55:51;18.38;;;11.55;;
38358;SDS011;42072;48.044;14.416;2023-01-04T09:58:38;18.05;;;10.65;;
38358;SDS011;42072;48.044;14.416;2023-01-04T10:01:12;11.20;;;7.95;;
38358;SDS011;42072;48.044;14.416;2023-01-04T10:06:44;9.70;;;6.80;;
38358;SDS011;42072;48.044;14.416;2023-01-04T10:09:12;7.80;;;5.55;;
38358;SDS011;42072;48.044;14.416;2023-01-04T10:14:29;8.65;;;5.63;;
38358;SDS011;42072;48.044;14.416;2023-01-04T10:17:14;10.40;;;6.00;;
38358;SDS011;42072;48.044;14.416;2023-01-04T10:23:51;5.85;;;4.53;;
38358;SDS011;42072;48.044;14.416;2023-01-04T10:29:17;6.65;;;4.45;;
38358;SDS011;42072;48.044;14.416;2023-01-04T10:32:01;9.50;;;6.60;;
38358;SDS011;42072;48.044;14.416;2023-01-04T10:34:50;10.27;;;5.63;;
38358;SDS011;42072;48.044;14.416;2023-01-04T10:37:21;6.00;;;4.50;;
38358;SDS011;42072;48.044;14.416;2023-01-04T10:39:51;7.13;;;4.95;;
38358;SDS011;42072;48.044;14.416;2023-01-04T10:42:34;7.55;;;5.40;;
38358;SDS011;42072;48.044;14.416;2023-01-04T10:53:37;8.70;;;5.57;;
38358;SDS011;42072;48.044;14.416;2023-01-04T10:58:58;9.43;;;5.45;;
38358;SDS011;42072;48.044;14.416;2023-01-04T11:01:50;8.63;;;5.80;;
38358;SDS011;42072;48.044;14.416;2023-01-04T11:09:42;21.20;;;6.82;;
38358;SDS011;42072;48.044;14.416;2023-01-04T11:12:10;21.35;;;6.82;;
38358;SDS011;42072;48.044;14.416;2023-01-04T11:14:41;7.50;;;4.68;;
38358;SDS011;42072;48.044;14.416;2023-01-04T11:17:09;6.47;;;4.10;;
38358;SDS011;42072;48.044;14.416;2023-01-04T11:19:37;5.78;;;4.20;;
38358;SDS011;42072;48.044;14.416;2023-01-04T11:25:00;6.00;;;3.97;;
38358;SDS011;42072;48.044;14.416;2023-01-04T11:27:59;8.95;;;6.00;;
38358;SDS011;42072;48.044;14.416;2023-01-04T11:30:59;7.63;;;5.20;;
38358;SDS011;42072;48.044;14.416;2023-01-04T11:33:52;9.57;;;4.88;;
38358;SDS011;42072;48.044;14.416;2023-01-04T11:38:57;7.63;;;5.40;;
38358;SDS011;42072;48.044;14.416;2023-01-04T11:41:25;8.20;;;5.43;;
38358;SDS011;42072;48.044;14.416;2023-01-04T11:43:57;6.85;;;4.90;;
38358;SDS011;42072;48.044;14.416;2023-01-04T11:46:44;7.15;;;5.63;;
38358;SDS011;42072;48.044;14.416;2023-01-04T11:49:17;7.97;;;5.68;;
38358;SDS011;42072;48.044;14.416;2023-01-04T11:51:45;8.07;;;5.50;;
38358;SDS011;42072;48.044;14.416;2023-01-04T11:57:01;7.13;;;4.82;;
38358;SDS011;42072;48.044;14.416;2023-01-04T11:59:37;8.55;;;5.60;;
38358;SDS011;42072;48.044;14.416;2023-01-04T12:02:18;13.32;;;8.00;;
38358;SDS011;42072;48.044;14.416;2023-01-04T12:05:19;10.18;;;6.47;;
38358;SDS011;42072;48.044;14.416;2023-01-04T12:07:55;7.95;;;5.60;;
38358;SDS011;42072;48.044;14.416;2023-01-04T12:10:24;6.63;;;5.07;;
38358;SDS011;42072;48.044;14.416;2023-01-04T12:12:54;6.45;;;5.18;;
38358;SDS011;42072;48.044;14.416;2023-01-04T12:15:25;7.28;;;5.38;;
38358;SDS011;42072;48.044;14.416;2023-01-04T12:18:15;8.68;;;5.53;;
38358;SDS011;42072;48.044;14.416;2023-01-04T12:20:50;8.38;;;5.30;;
38358;SDS011;42072;48.044;14.416;2023-01-04T12:23:18;6.35;;;4.85;;
38358;SDS011;42072;48.044;14.416;2023-01-04T12:25:49;8.00;;;6.25;;
38358;SDS011;42072;48.044;14.416;2023-01-04T12:28:34;9.32;;;6.30;;
38358;SDS011;42072;48.044;14.416;2023-01-04T12:33:50;6.60;;;5.47;;
38358;SDS011;42072;48.044;14.416;2023-01-04T12:36:17;10.18;;;6.93;;
38358;SDS011;42072;48.044;14.416;2023-01-04T12:38:56;9.70;;;6.78;;
38358;SDS011;42072;48.044;14.416;2023-01-04T12:44:00;7.78;;;5.75;;
38358;SDS011;42072;48.044;14.416;2023-01-04T12:54:56;9.88;;;6.50;;
38358;SDS011;42072;48.044;14.416;2023-01-04T12:57:37;9.70;;;6.50;;
38358;SDS011;42072;48.044;14.416;2023-01-04T13:02:40;9.95;;;6.75;;
38358;SDS011;42072;48.044;14.416;2023-01-04T13:08:09;13.25;;;7.75;;
38358;SDS011;42072;48.044;14.416;2023-01-04T13:18:51;10.85;;;7.90;;
38358;SDS011;42072;48.044;14.416;2023-01-04T13:21:38;10.23;;;7.15;;
38358;SDS011;42072;48.044;14.416;2023-01-04T13:26:43;12.32;;;7.80;;
38358;SDS011;42072;48.044;14.416;2023-01-04T13:32:04;9.10;;;6.82;;
38358;SDS011;42072;48.044;14.416;2023-01-04T13:34:55;10.00;;;7.27;;
38358;SDS011;42072;48.044;14.416;2023-01-04T13:37:29;11.15;;;7.22;;
38358;SDS011;42072;48.044;14.416;2023-01-04T13:43:16;9.50;;;6.45;;
38358;SDS011;42072;48.044;14.416;2023-01-04T13:48:34;10.88;;;7.20;;
38358;SDS011;42072;48.044;14.416;2023-01-04T13:51:05;9.98;;;6.82;;
38358;SDS011;42072;48.044;14.416;2023-01-04T13:53:41;8.80;;;5.85;;
38358;SDS011;42072;48.044;14.416;2023-01-04T13:56:18;10.60;;;6.65;;
38358;SDS011;42072;48.044;14.416;2023-01-04T13:58:48;11.02;;;6.75;;
38358;SDS011;42072;48.044;14.416;2023-01-04T14:04:03;11.27;;;7.28;;
38358;SDS011;42072;48.044;14.416;2023-01-04T14:06:43;11.90;;;8.02;;
38358;SDS011;42072;48.044;14.416;2023-01-04T14:09:16;11.85;;;8.70;;
38358;SDS011;42072;48.044;14.416;2023-01-04T14:11:54;13.68;;;8.80;;
38358;SDS011;42072;48.044;14.416;2023-01-04T14:18:20;14.18;;;8.75;;
38358;SDS011;42072;48.044;14.416;2023-01-04T14:28:45;11.40;;;8.65;;
38358;SDS011;42072;48.044;14.416;2023-01-04T14:36:27;12.82;;;8.68;;
38358;SDS011;42072;48.044;14.416;2023-01-04T14:41:36;13.98;;;9.95;;
38358;SDS011;42072;48.044;14.416;2023-01-04T14:44:27;15.18;;;10.30;;
38358;SDS011;42072;48.044;14.416;2023-01-04T14:46:57;15.10;;;10.45;;
38358;SDS011;42072;48.044;14.416;2023-01-04T14:49:26;14.68;;;10.52;;
38358;SDS011;42072;48.044;14.416;2023-01-04T14:52:01;15.20;;;11.00;;
38358;SDS011;42072;48.044;14.416;2023-01-04T14:54:29;16.52;;;11.85;;
38358;SDS011;42072;48.044;14.416;2023-01-04T14:56:59;16.15;;;11.10;;
38358;SDS011;42072;48.044;14.416;2023-01-04T14:59:26;15.68;;;10.82;;
38358;SDS011;42072;48.044;14.416;2023-01-04T15:01:54;16.45;;;11.32;;
38358;SDS011;42072;48.044;14.416;2023-01-04T15:04:23;16.02;;;10.95;;
38358;SDS011;42072;48.044;14.416;2023-01-04T15:06:52;17.67;;;11.90;;
38358;SDS011;42072;48.044;14.416;2023-01-04T15:09:21;16.30;;;11.07;;
38358;SDS011;42072;48.044;14.416;2023-01-04T15:11:48;15.90;;;10.98;;
38358;SDS011;42072;48.044;14.416;2023-01-04T15:14:16;17.85;;;11.98;;
38358;SDS011;42072;48.044;14.416;2023-01-04T15:16:43;15.80;;;10.95;;
38358;SDS011;42072;48.044;14.416;2023-01-04T15:19:11;17.70;;;11.25;;
38358;SDS011;42072;48.044;14.416;2023-01-04T15:21:38;19.13;;;12.73;;
38358;SDS011;42072;48.044;14.416;2023-01-04T15:24:07;16.48;;;11.70;;
38358;SDS011;42072;48.044;14.416;2023-01-04T15:26:36;19.75;;;12.20;;
38358;SDS011;42072;48.044;14.416;2023-01-04T15:29:04;20.83;;;13.30;;
38358;SDS011;42072;48.044;14.416;2023-01-04T15:31:32;19.85;;;13.25;;
38358;SDS011;42072;48.044;14.416;2023-01-04T15:34:05;21.67;;;13.45;;
38358;SDS011;42072;48.044;14.416;2023-01-04T15:36:33;23.40;;;13.63;;
38358;SDS011;42072;48.044;14.416;2023-01-04T15:39:04;22.05;;;14.43;;
38358;SDS011;42072;48.044;14.416;2023-01-04T15:41:32;20.40;;;13.93;;
38358;SDS011;42072;48.044;14.416;2023-01-04T15:44:18;20.58;;;14.48;;
38358;SDS011;42072;48.044;14.416;2023-01-04T15:46:45;21.50;;;13.70;;
38358;SDS011;42072;48.044;14.416;2023-01-04T15:49:13;23.40;;;13.52;;
38358;SDS011;42072;48.044;14.416;2023-01-04T15:51:43;21.33;;;14.20;;
38358;SDS011;42072;48.044;14.416;2023-01-04T15:54:12;23.30;;;14.50;;
38358;SDS011;42072;48.044;14.416;2023-01-04T15:56:39;23.60;;;14.93;;
38358;SDS011;42072;48.044;14.416;2023-01-04T15:59:06;20.98;;;14.10;;
38358;SDS011;42072;48.044;14.416;2023-01-04T16:01:33;23.63;;;15.20;;
38358;SDS011;42072;48.044;14.416;2023-01-04T16:04:01;24.52;;;15.65;;
38358;SDS011;42072;48.044;14.416;2023-01-04T16:06:31;24.05;;;15.15;;
38358;SDS011;42072;48.044;14.416;2023-01-04T16:08:58;21.98;;;14.85;;
38358;SDS011;42072;48.044;14.416;2023-01-04T16:11:27;23.35;;;14.57;;
38358;SDS011;42072;48.044;14.416;2023-01-04T16:13:54;20.85;;;13.98;;
38358;SDS011;42072;48.044;14.416;2023-01-04T16:16:22;20.08;;;13.43;;
38358;SDS011;42072;48.044;14.416;2023-01-04T16:18:54;19.50;;;12.57;;
38358;SDS011;42072;48.044;14.416;2023-01-04T16:21:23;19.73;;;13.70;;
38358;SDS011;42072;48.044;14.416;2023-01-04T16:23:52;23.27;;;14.73;;
38358;SDS011;42072;48.044;14.416;2023-01-04T16:26:30;20.60;;;14.90;;
38358;SDS011;42072;48.044;14.416;2023-01-04T16:28:58;18.65;;;11.55;;
38358;SDS011;42072;48.044;14.416;2023-01-04T16:31:26;20.52;;;13.15;;
38358;SDS011;42072;48.044;14.416;2023-01-04T16:34:01;22.63;;;14.63;;
38358;SDS011;42072;48.044;14.416;2023-01-04T16:36:30;25.75;;;15.73;;
38358;SDS011;42072;48.044;14.416;2023-01-04T16:38:57;26.48;;;16.02;;
38358;SDS011;42072;48.044;14.416;2023-01-04T16:41:26;21.58;;;14.15;;
38358;SDS011;42072;48.044;14.416;2023-01-04T16:43:54;22.95;;;14.05;;
38358;SDS011;42072;48.044;14.416;2023-01-04T16:46:28;29.42;;;16.77;;
38358;SDS011;42072;48.044;14.416;2023-01-04T16:49:02;30.02;;;18.17;;
38358;SDS011;42072;48.044;14.416;2023-01-04T16:51:32;36.78;;;20.95;;
38358;SDS011;42072;48.044;14.416;2023-01-04T16:54:01;30.77;;;17.80;;
38358;SDS011;42072;48.044;14.416;2023-01-04T16:56:30;28.27;;;17.45;;
38358;SDS011;42072;48.044;14.416;2023-01-04T16:58:59;28.73;;;17.67;;